sensor_id;sensor_type;location;lat;lon;timestamp;pressure;altitude;pressure_sealevel;temperature;humidity
6216;BME280;3141;49.234;9.326;2023-02-13T00:00:25;101735.81;;;4.66;79.96
6216;BME280;3141;49.234;9.326;2023-02-13T00:01:07;101736.03;;;4.62;80.05
6216;BME280;3141;49.234;9.326;2023-02-13T00:01:50;101728.25;;;4.60;80.12
6216;BME280;3141;49.234;9.326;2023-02-13T00:02:33;101733.75;;;4.54;80.13
6216;BME280;3141;49.234;9.326;2023-02-13T00:03:15;101732.63;;;4.60;80.27
6216;BME280;3141;49.234;9.326;2023-02-13T00:03:58;101733.34;;;4.63;80.27
6216;BME280;3141;49.234;9.326;2023-02-13T00:04:41;101730.09;;;4.58;81.11
6216;BME280;3141;49.234;9.326;2023-02-13T00:05:26;101733.34;;;4.63;80.23
6216;BME280;3141;49.234;9.326;2023-02-13T00:06:08;101724.56;;;4.64;79.82
6216;BME280;3141;49.234;9.326;2023-02-13T00:06:50;101731.38;;;4.68;79.97
6216;BME280;3141;49.234;9.326;2023-02-13T00:07:33;101719.41;;;4.63;80.51
6216;BME280;3141;49.234;9.326;2023-02-13T00:08:15;101726.53;;;4.59;80.15
6216;BME280;3141;49.234;9.326;2023-02-13T00:08:58;101723.91;;;4.59;80.22
6216;BME280;3141;49.234;9.326;2023-02-13T00:09:40;101724.00;;;4.58;79.73
6216;BME280;3141;49.234;9.326;2023-02-13T00:10:22;101718.97;;;4.53;80.71
6216;BME280;3141;49.234;9.326;2023-02-13T00:11:05;101721.59;;;4.53;80.09
6216;BME280;3141;49.234;9.326;2023-02-13T00:11:47;101723.19;;;4.56;79.65
6216;BME280;3141;49.234;9.326;2023-02-13T00:12:29;101720.47;;;4.59;79.77
6216;BME280;3141;49.234;9.326;2023-02-13T00:13:12;101717.97;;;4.56;79.11
6216;BME280;3141;49.234;9.326;2023-02-13T00:13:54;101714.53;;;4.55;79.02
6216;BME280;3141;49.234;9.326;2023-02-13T00:14:38;101716.22;;;4.56;79.11
6216;BME280;3141;49.234;9.326;2023-02-13T00:15:20;101717.91;;;4.57;79.14
6216;BME280;3141;49.234;9.326;2023-02-13T00:16:03;101714.63;;;4.52;79.49
6216;BME280;3141;49.234;9.326;2023-02-13T00:16:46;101717.25;;;4.52;79.44
6216;BME280;3141;49.234;9.326;2023-02-13T00:17:28;101716.34;;;4.53;79.65
6216;BME280;3141;49.234;9.326;2023-02-13T00:18:10;101712.94;;;4.51;79.59
6216;BME280;3141;49.234;9.326;2023-02-13T00:18:53;101716.22;;;4.56;79.61
6216;BME280;3141;49.234;9.326;2023-02-13T00:19:35;101713.19;;;4.45;78.72
6216;BME280;3141;49.234;9.326;2023-02-13T00:20:18;101715.72;;;4.48;79.72
6216;BME280;3141;49.234;9.326;2023-02-13T00:21:03;101718.19;;;4.51;79.57
6216;BME280;3141;49.234;9.326;2023-02-13T00:21:45;101721.78;;;4.49;79.17
6216;BME280;3141;49.234;9.326;2023-02-13T00:22:28;101710.66;;;4.44;79.41
6216;BME280;3141;49.234;9.326;2023-02-13T00:23:10;101710.88;;;4.39;79.39
6216;BME280;3141;49.234;9.326;2023-02-13T00:23:52;101710.22;;;4.34;79.28
6216;BME280;3141;49.234;9.326;2023-02-13T00:24:35;101717.28;;;4.32;79.63
6216;BME280;3141;49.234;9.326;2023-02-13T00:25:17;101720.69;;;4.34;79.67
6216;BME280;3141;49.234;9.326;2023-02-13T00:26:03;101711.91;;;4.35;79.78
6216;BME280;3141;49.234;9.326;2023-02-13T00:26:46;101709.44;;;4.32;79.43
6216;BME280;3141;49.234;9.326;2023-02-13T00:27:28;101712.91;;;4.33;79.53
6216;BME280;3141;49.234;9.326;2023-02-13T00:28:10;101715.78;;;4.27;79.93
6216;BME280;3141;49.234;9.326;2023-02-13T00:28:53;101707.56;;;4.16;80.36
6216;BME280;3141;49.234;9.326;2023-02-13T00:29:35;101712.00;;;4.14;80.97
6216;BME280;3141;49.234;9.326;2023-02-13T00:30:18;101706.84;;;4.12;81.34
6216;BME280;3141;49.234;9.326;2023-02-13T00:31:11;101710.34;;;4.11;81.16
6216;BME280;3141;49.234;9.326;2023-02-13T00:31:54;101702.78;;;4.05;81.69
6216;BME280;3141;49.234;9.326;2023-02-13T00:32:36;101705.56;;;4.01;81.16
6216;BME280;3141;49.234;9.326;2023-02-13T00:33:19;101706.16;;;4.07;81.47
6216;BME280;3141;49.234;9.326;2023-02-13T00:34:01;101703.53;;;4.07;81.12
6216;BME280;3141;49.234;9.326;2023-02-13T00:34:44;101702.63;;;4.08;81.26
6216;BME280;3141;49.234;9.326;2023-02-13T00:35:26;101702.50;;;4.11;80.85
6216;BME280;3141;49.234;9.326;2023-02-13T00:36:14;101704.97;;;4.14;80.16
6216;BME280;3141;49.234;9.326;2023-02-13T00:36:56;101701.31;;;4.18;80.48
6216;BME280;3141;49.234;9.326;2023-02-13T00:37:39;101703.94;;;4.18;79.78
6216;BME280;3141;49.234;9.326;2023-02-13T00:38:21;101703.03;;;4.19;80.12
6216;BME280;3141;49.234;9.326;2023-02-13T00:39:03;101695.19;;;4.19;80.07
6216;BME280;3141;49.234;9.326;2023-02-13T00:39:46;101701.25;;;4.20;79.95
6216;BME280;3141;49.234;9.326;2023-02-13T00:40:28;101699.41;;;4.22;79.79
6216;BME280;3141;49.234;9.326;2023-02-13T00:41:11;101691.63;;;4.20;79.44
6216;BME280;3141;49.234;9.326;2023-02-13T00:41:53;101703.16;;;4.16;79.97
6216;BME280;3141;49.234;9.326;2023-02-13T00:42:35;101707.47;;;4.17;79.56
6216;BME280;3141;49.234;9.326;2023-02-13T00:43:18;101703.06;;;4.18;79.74
6216;BME280;3141;49.234;9.326;2023-02-13T00:44:00;101704.25;;;4.11;79.68
6216;BME280;3141;49.234;9.326;2023-02-13T00:44:42;101702.84;;;4.04;79.91
6216;BME280;3141;49.234;9.326;2023-02-13T00:45:25;101706.16;;;4.07;79.82
6216;BME280;3141;49.234;9.326;2023-02-13T00:46:07;101704.22;;;4.12;79.27
6216;BME280;3141;49.234;9.326;2023-02-13T00:46:49;101699.03;;;4.11;79.31
6216;BME280;3141;49.234;9.326;2023-02-13T00:47:32;101708.44;;;4.15;79.67
6216;BME280;3141;49.234;9.326;2023-02-13T00:48:14;101706.84;;;4.12;79.82
6216;BME280;3141;49.234;9.326;2023-02-13T00:48:56;101703.53;;;4.07;79.22
6216;BME280;3141;49.234;9.326;2023-02-13T00:49:39;101708.00;;;4.05;79.42
6216;BME280;3141;49.234;9.326;2023-02-13T00:50:21;101703.50;;;4.09;79.93
6216;BME280;3141;49.234;9.326;2023-02-13T00:51:04;101701.53;;;4.14;79.44
6216;BME280;3141;49.234;9.326;2023-02-13T00:51:47;101706.75;;;4.14;78.95
6216;BME280;3141;49.234;9.326;2023-02-13T00:52:29;101704.97;;;4.14;78.82
6216;BME280;3141;49.234;9.326;2023-02-13T00:53:12;101703.34;;;4.12;78.98
6216;BME280;3141;49.234;9.326;2023-02-13T00:53:55;101706.16;;;4.07;78.59
6216;BME280;3141;49.234;9.326;2023-02-13T00:54:37;101714.06;;;4.06;79.13
6216;BME280;3141;49.234;9.326;2023-02-13T00:55:19;101708.13;;;4.02;78.76
6216;BME280;3141;49.234;9.326;2023-02-13T00:56:03;101712.59;;;4.00;79.28
6216;BME280;3141;49.234;9.326;2023-02-13T00:56:47;101713.41;;;4.01;78.68
6216;BME280;3141;49.234;9.326;2023-02-13T00:57:29;101708.25;;;3.99;78.70
6216;BME280;3141;49.234;9.326;2023-02-13T00:58:13;101714.41;;;3.98;78.67
6216;BME280;3141;49.234;9.326;2023-02-13T00:58:56;101707.47;;;3.97;79.35
6216;BME280;3141;49.234;9.326;2023-02-13T00:59:38;101706.56;;;3.98;79.51
6216;BME280;3141;49.234;9.326;2023-02-13T01:00:21;101710.94;;;3.98;79.03
6216;BME280;3141;49.234;9.326;2023-02-13T01:01:03;101703.94;;;3.98;79.49
6216;BME280;3141;49.234;9.326;2023-02-13T01:01:45;101707.53;;;3.96;78.99
6216;BME280;3141;49.234;9.326;2023-02-13T01:02:28;101708.41;;;3.96;78.98
6216;BME280;3141;49.234;9.326;2023-02-13T01:03:10;101710.94;;;3.98;79.32
6216;BME280;3141;49.234;9.326;2023-02-13T01:03:52;101702.38;;;3.94;78.88
6216;BME280;3141;49.234;9.326;2023-02-13T01:04:35;101700.03;;;3.88;79.08
6216;BME280;3141;49.234;9.326;2023-02-13T01:05:17;101704.84;;;3.97;79.27
6216;BME280;3141;49.234;9.326;2023-02-13T01:06:00;101708.13;;;4.02;78.93
6216;BME280;3141;49.234;9.326;2023-02-13T01:06:42;101700.25;;;4.02;79.18
6216;BME280;3141;49.234;9.326;2023-02-13T01:07:24;101709.19;;;3.98;78.49
6216;BME280;3141;49.234;9.326;2023-02-13T01:08:07;101707.34;;;4.00;79.16
6216;BME280;3141;49.234;9.326;2023-02-13T01:08:49;101708.25;;;3.99;78.55
6216;BME280;3141;49.234;9.326;2023-02-13T01:09:32;101702.13;;;4.00;78.78
6216;BME280;3141;49.234;9.326;2023-02-13T01:10:14;101708.25;;;3.99;78.54
6216;BME280;3141;49.234;9.326;2023-02-13T01:10:57;101700.22;;;4.04;78.53
6216;BME280;3141;49.234;9.326;2023-02-13T01:11:39;101703.03;;;3.99;78.61
6216;BME280;3141;49.234;9.326;2023-02-13T01:12:21;101707.22;;;4.03;78.93
6216;BME280;3141;49.234;9.326;2023-02-13T01:13:04;101707.34;;;4.00;79.00
6216;BME280;3141;49.234;9.326;2023-02-13T01:13:47;101700.34;;;4.01;78.36
6216;BME280;3141;49.234;9.326;2023-02-13T01:14:29;101704.84;;;3.97;78.34
6216;BME280;3141;49.234;9.326;2023-02-13T01:15:11;101707.34;;;4.00;78.27
6216;BME280;3141;49.234;9.326;2023-02-13T01:15:54;101702.16;;;3.99;78.72
6216;BME280;3141;49.234;9.326;2023-02-13T01:16:36;101704.84;;;3.97;79.10
6216;BME280;3141;49.234;9.326;2023-02-13T01:17:18;101703.16;;;3.96;78.89
6216;BME280;3141;49.234;9.326;2023-02-13T01:18:01;101705.69;;;3.98;78.72
6216;BME280;3141;49.234;9.326;2023-02-13T01:18:44;101703.22;;;3.95;78.69
6216;BME280;3141;49.234;9.326;2023-02-13T01:19:26;101705.25;;;3.88;79.13
6216;BME280;3141;49.234;9.326;2023-02-13T01:20:10;101701.84;;;3.86;78.81
6216;BME280;3141;49.234;9.326;2023-02-13T01:21:03;101702.81;;;3.84;78.83
6216;BME280;3141;49.234;9.326;2023-02-13T01:21:46;101706.34;;;3.83;79.78
6216;BME280;3141;49.234;9.326;2023-02-13T01:22:28;101698.63;;;3.80;79.17
6216;BME280;3141;49.234;9.326;2023-02-13T01:23:11;101707.31;;;3.80;79.38
6216;BME280;3141;49.234;9.326;2023-02-13T01:23:53;101703.91;;;3.78;79.60
6216;BME280;3141;49.234;9.326;2023-02-13T01:24:36;101700.41;;;3.79;79.44
6216;BME280;3141;49.234;9.326;2023-02-13T01:25:18;101706.44;;;3.81;79.43
6216;BME280;3141;49.234;9.326;2023-02-13T01:26:05;101703.66;;;3.84;79.38
6216;BME280;3141;49.234;9.326;2023-02-13T01:26:48;101700.03;;;3.88;78.50
6216;BME280;3141;49.234;9.326;2023-02-13T01:27:30;101704.53;;;3.85;79.02
6216;BME280;3141;49.234;9.326;2023-02-13T01:28:13;101703.59;;;3.86;78.35
6216;BME280;3141;49.234;9.326;2023-02-13T01:28:55;101703.91;;;3.78;78.73
6216;BME280;3141;49.234;9.326;2023-02-13T01:29:39;101711.09;;;3.73;79.22
6216;BME280;3141;49.234;9.326;2023-02-13T01:30:21;101701.44;;;3.75;78.48
6216;BME280;3141;49.234;9.326;2023-02-13T01:31:04;101704.03;;;3.75;78.95
6216;BME280;3141;49.234;9.326;2023-02-13T01:31:46;101702.09;;;3.80;78.96
6216;BME280;3141;49.234;9.326;2023-02-13T01:32:28;101705.78;;;3.76;78.28
6216;BME280;3141;49.234;9.326;2023-02-13T01:33:11;101699.59;;;3.77;79.10
6216;BME280;3141;49.234;9.326;2023-02-13T01:33:56;101704.19;;;3.72;78.95
6216;BME280;3141;49.234;9.326;2023-02-13T01:34:39;101696.06;;;3.78;78.89
6216;BME280;3141;49.234;9.326;2023-02-13T01:35:21;101704.78;;;3.79;78.82
6216;BME280;3141;49.234;9.326;2023-02-13T01:36:06;101702.22;;;3.77;78.74
6216;BME280;3141;49.234;9.326;2023-02-13T01:36:48;101697.00;;;3.77;78.73
6216;BME280;3141;49.234;9.326;2023-02-13T01:37:31;101704.84;;;3.77;78.61
6216;BME280;3141;49.234;9.326;2023-02-13T01:38:13;101700.63;;;3.73;78.67
6216;BME280;3141;49.234;9.326;2023-02-13T01:38:57;101703.19;;;3.75;79.00
6216;BME280;3141;49.234;9.326;2023-02-13T01:39:40;101702.47;;;3.71;78.71
6216;BME280;3141;49.234;9.326;2023-02-13T01:40:22;101697.13;;;3.74;79.14
6216;BME280;3141;49.234;9.326;2023-02-13T01:41:05;101698.81;;;3.75;78.93
6216;BME280;3141;49.234;9.326;2023-02-13T01:41:47;101690.06;;;3.76;79.18
6216;BME280;3141;49.234;9.326;2023-02-13T01:42:32;101693.38;;;3.80;78.73
6216;BME280;3141;49.234;9.326;2023-02-13T01:43:15;101694.00;;;3.86;78.73
6216;BME280;3141;49.234;9.326;2023-02-13T01:43:59;101697.50;;;3.85;78.58
6216;BME280;3141;49.234;9.326;2023-02-13T01:44:53;101696.53;;;3.88;78.17
6216;BME280;3141;49.234;9.326;2023-02-13T01:45:35;101695.75;;;3.86;78.28
6216;BME280;3141;49.234;9.326;2023-02-13T01:46:26;101698.44;;;3.84;78.17
6216;BME280;3141;49.234;9.326;2023-02-13T01:47:10;101698.31;;;3.87;79.00
6216;BME280;3141;49.234;9.326;2023-02-13T01:48:02;101695.03;;;3.82;78.08
6216;BME280;3141;49.234;9.326;2023-02-13T01:48:47;101696.78;;;3.82;78.36
6216;BME280;3141;49.234;9.326;2023-02-13T01:49:31;101695.88;;;3.83;78.42
6216;BME280;3141;49.234;9.326;2023-02-13T01:51:21;101696.06;;;3.78;78.31
6216;BME280;3141;49.234;9.326;2023-02-13T01:52:05;101697.13;;;3.74;78.39
6216;BME280;3141;49.234;9.326;2023-02-13T01:53:05;101695.31;;;3.76;78.27
6216;BME280;3141;49.234;9.326;2023-02-13T01:53:56;101691.75;;;3.77;78.38
6216;BME280;3141;49.234;9.326;2023-02-13T01:54:40;101689.34;;;3.73;78.34
6216;BME280;3141;49.234;9.326;2023-02-13T01:55:24;101689.28;;;3.74;78.84
6216;BME280;3141;49.234;9.326;2023-02-13T01:56:15;101695.53;;;3.70;78.38
6216;BME280;3141;49.234;9.326;2023-02-13T01:57:18;101689.34;;;3.73;79.29
6216;BME280;3141;49.234;9.326;2023-02-13T01:58:08;101692.72;;;3.75;78.69
6216;BME280;3141;49.234;9.326;2023-02-13T01:58:56;101698.75;;;3.77;78.96
6216;BME280;3141;49.234;9.326;2023-02-13T02:00:06;101698.44;;;3.84;78.37
6216;BME280;3141;49.234;9.326;2023-02-13T02:00:47;101692.41;;;3.82;77.95
6216;BME280;3141;49.234;9.326;2023-02-13T02:01:32;101693.06;;;3.87;78.20
6216;BME280;3141;49.234;9.326;2023-02-13T02:02:16;101697.59;;;3.84;78.42
6216;BME280;3141;49.234;9.326;2023-02-13T02:03:04;101696.63;;;3.86;77.90
6216;BME280;3141;49.234;9.326;2023-02-13T02:03:54;101694.78;;;3.88;77.53
6216;BME280;3141;49.234;9.326;2023-02-13T02:04:39;101692.94;;;3.90;77.95
6216;BME280;3141;49.234;9.326;2023-02-13T02:05:25;101695.63;;;3.89;77.92
6216;BME280;3141;49.234;9.326;2023-02-13T02:06:13;101692.09;;;3.90;77.44
6216;BME280;3141;49.234;9.326;2023-02-13T02:07:02;101693.06;;;3.87;77.70
6216;BME280;3141;49.234;9.326;2023-02-13T02:07:46;101694.78;;;3.88;77.44
6216;BME280;3141;49.234;9.326;2023-02-13T02:08:29;101686.97;;;3.87;77.31
6216;BME280;3141;49.234;9.326;2023-02-13T02:09:15;101691.50;;;3.83;77.58
6216;BME280;3141;49.234;9.326;2023-02-13T02:10:02;101694.09;;;3.83;77.70
6216;BME280;3141;49.234;9.326;2023-02-13T02:10:45;101690.84;;;3.78;78.51
6216;BME280;3141;49.234;9.326;2023-02-13T02:11:35;101691.16;;;3.71;78.66
6216;BME280;3141;49.234;9.326;2023-02-13T02:12:25;101688.78;;;3.65;78.96
6216;BME280;3141;49.234;9.326;2023-02-13T02:13:15;101681.53;;;3.71;78.90
6216;BME280;3141;49.234;9.326;2023-02-13T02:14:00;101687.63;;;3.72;79.25
6216;BME280;3141;49.234;9.326;2023-02-13T02:14:42;101685.06;;;3.70;79.41
6216;BME280;3141;49.234;9.326;2023-02-13T02:15:25;101688.34;;;3.75;79.47
6216;BME280;3141;49.234;9.326;2023-02-13T02:16:08;101695.03;;;3.82;79.41
6216;BME280;3141;49.234;9.326;2023-02-13T02:16:50;101688.63;;;3.89;79.04
6216;BME280;3141;49.234;9.326;2023-02-13T02:17:34;101687.97;;;3.84;78.82
6216;BME280;3141;49.234;9.326;2023-02-13T02:18:21;101685.38;;;3.84;79.23
6216;BME280;3141;49.234;9.326;2023-02-13T02:19:12;101687.78;;;3.89;79.04
6216;BME280;3141;49.234;9.326;2023-02-13T02:21:45;101684.38;;;3.87;78.31
6216;BME280;3141;49.234;9.326;2023-02-13T02:22:44;101687.59;;;3.93;78.29
6216;BME280;3141;49.234;9.326;2023-02-13T02:26:42;101692.56;;;3.99;78.96
6216;BME280;3141;49.234;9.326;2023-02-13T02:29:22;101696.09;;;3.98;79.20
6216;BME280;3141;49.234;9.326;2023-02-13T02:31:38;101692.56;;;3.99;79.25
6216;BME280;3141;49.234;9.326;2023-02-13T02:33:30;101690.88;;;3.98;79.76
6216;BME280;3141;49.234;9.326;2023-02-13T02:39:13;101682.88;;;4.01;79.81
6216;BME280;3141;49.234;9.326;2023-02-13T02:41:09;101689.03;;;4.00;80.25
6216;BME280;3141;49.234;9.326;2023-02-13T02:42:33;101688.31;;;3.97;79.77
6216;BME280;3141;49.234;9.326;2023-02-13T02:43:37;101692.69;;;3.96;80.10
6216;BME280;3141;49.234;9.326;2023-02-13T02:45:59;101688.19;;;4.00;80.31
6216;BME280;3141;49.234;9.326;2023-02-13T02:46:35;101692.69;;;3.96;80.72
6216;BME280;3141;49.234;9.326;2023-02-13T02:49:04;101688.22;;;4.18;80.02
6216;BME280;3141;49.234;9.326;2023-02-13T02:51:06;101683.72;;;4.22;79.95
6216;BME280;3141;49.234;9.326;2023-02-13T02:52:02;101684.09;;;4.33;79.89
6216;BME280;3141;49.234;9.326;2023-02-13T02:53:43;101687.44;;;4.36;79.18
6216;BME280;3141;49.234;9.326;2023-02-13T02:56:39;101692.19;;;4.47;78.81
6216;BME280;3141;49.234;9.326;2023-02-13T02:57:29;101695.66;;;4.47;78.55
6216;BME280;3141;49.234;9.326;2023-02-13T02:58:45;101685.91;;;4.51;78.61
6216;BME280;3141;49.234;9.326;2023-02-13T03:00:01;101688.91;;;4.42;79.42
6216;BME280;3141;49.234;9.326;2023-02-13T03:01:05;101692.53;;;4.39;79.30
6216;BME280;3141;49.234;9.326;2023-02-13T03:02:09;101696.84;;;4.40;79.37
6216;BME280;3141;49.234;9.326;2023-02-13T03:03:16;101696.19;;;4.35;79.79
6216;BME280;3141;49.234;9.326;2023-02-13T03:04:37;101689.59;;;4.27;80.72
6216;BME280;3141;49.234;9.326;2023-02-13T03:05:42;101691.19;;;4.31;80.57
6216;BME280;3141;49.234;9.326;2023-02-13T03:06:51;101702.63;;;4.28;81.25
6216;BME280;3141;49.234;9.326;2023-02-13T03:07:34;101698.88;;;4.34;80.82
6216;BME280;3141;49.234;9.326;2023-02-13T03:08:17;101703.91;;;4.38;80.74
6216;BME280;3141;49.234;9.326;2023-02-13T03:09:27;101699.34;;;4.43;80.56
6216;BME280;3141;49.234;9.326;2023-02-13T03:10:32;101698.41;;;4.44;80.67
6216;BME280;3141;49.234;9.326;2023-02-13T03:11:35;101704.50;;;4.45;80.99
6216;BME280;3141;49.234;9.326;2023-02-13T03:13:00;101699.34;;;4.43;80.77
6216;BME280;3141;49.234;9.326;2023-02-13T03:14:05;101713.19;;;4.45;81.34
6216;BME280;3141;49.234;9.326;2023-02-13T03:14:50;101701.59;;;4.51;81.30
6216;BME280;3141;49.234;9.326;2023-02-13T03:15:35;101707.06;;;4.46;82.02
6216;BME280;3141;49.234;9.326;2023-02-13T03:16:37;101707.78;;;4.50;82.23
6216;BME280;3141;49.234;9.326;2023-02-13T03:17:38;101698.50;;;4.61;81.48
6216;BME280;3141;49.234;9.326;2023-02-13T03:18:45;101696.53;;;4.66;81.56
6216;BME280;3141;49.234;9.326;2023-02-13T03:20:22;101694.69;;;4.68;82.20
6216;BME280;3141;49.234;9.326;2023-02-13T03:26:46;101715.50;;;4.90;80.58
6216;BME280;3141;49.234;9.326;2023-02-13T03:28:51;101713.56;;;4.95;80.38
6216;BME280;3141;49.234;9.326;2023-02-13T03:30:04;101707.47;;;4.95;80.91
6216;BME280;3141;49.234;9.326;2023-02-13T03:31:17;101709.22;;;4.94;81.01
6216;BME280;3141;49.234;9.326;2023-02-13T03:32:34;101708.72;;;5.05;80.54
6216;BME280;3141;49.234;9.326;2023-02-13T03:33:40;101708.59;;;5.08;80.71
6216;BME280;3141;49.234;9.326;2023-02-13T03:34:24;101716.38;;;5.09;80.48
6216;BME280;3141;49.234;9.326;2023-02-13T03:35:42;101713.63;;;5.12;80.75
6216;BME280;3141;49.234;9.326;2023-02-13T03:36:59;101716.97;;;5.16;80.63
6216;BME280;3141;49.234;9.326;2023-02-13T03:38:08;101712.69;;;5.13;80.29
6216;BME280;3141;49.234;9.326;2023-02-13T03:40:12;101714.34;;;5.16;81.11
6216;BME280;3141;49.234;9.326;2023-02-13T03:41:06;101721.34;;;5.15;80.86
6216;BME280;3141;49.234;9.326;2023-02-13T03:42:12;101718.56;;;5.18;80.96
6216;BME280;3141;49.234;9.326;2023-02-13T03:43:08;101716.97;;;5.16;81.28
6216;BME280;3141;49.234;9.326;2023-02-13T03:43:55;101714.47;;;5.13;81.31
6216;BME280;3141;49.234;9.326;2023-02-13T03:44:43;101710.78;;;5.17;81.80
6216;BME280;3141;49.234;9.326;2023-02-13T03:45:36;101721.25;;;5.17;81.64
6216;BME280;3141;49.234;9.326;2023-02-13T03:46:37;101723.88;;;5.17;82.04
6216;BME280;3141;49.234;9.326;2023-02-13T03:47:21;101718.00;;;5.12;81.97
6216;BME280;3141;49.234;9.326;2023-02-13T03:48:04;101720.56;;;5.13;82.38
6216;BME280;3141;49.234;9.326;2023-02-13T03:48:50;101725.47;;;5.21;82.29
6216;BME280;3141;49.234;9.326;2023-02-13T03:49:52;101724.81;;;5.16;82.45
6216;BME280;3141;49.234;9.326;2023-02-13T03:50:47;101727.44;;;5.16;82.70
6216;BME280;3141;49.234;9.326;2023-02-13T03:51:40;101725.56;;;5.18;83.01
6216;BME280;3141;49.234;9.326;2023-02-13T03:52:31;101724.44;;;5.23;82.43
6216;BME280;3141;49.234;9.326;2023-02-13T03:53:17;101719.34;;;5.20;82.95
6216;BME280;3141;49.234;9.326;2023-02-13T03:54:04;101716.72;;;5.20;83.07
6216;BME280;3141;49.234;9.326;2023-02-13T03:54:58;101724.19;;;5.11;83.14
6216;BME280;3141;49.234;9.326;2023-02-13T03:56:01;101717.59;;;5.21;83.37
6216;BME280;3141;49.234;9.326;2023-02-13T03:57:02;101718.38;;;5.23;82.94
6216;BME280;3141;49.234;9.326;2023-02-13T03:58:07;101725.47;;;5.21;83.10
6216;BME280;3141;49.234;9.326;2023-02-13T03:59:17;101724.59;;;5.20;83.00
6216;BME280;3141;49.234;9.326;2023-02-13T04:00:04;101724.66;;;5.19;83.31
6216;BME280;3141;49.234;9.326;2023-02-13T04:00:52;101727.28;;;5.19;83.30
6216;BME280;3141;49.234;9.326;2023-02-13T04:01:37;101729.75;;;5.22;83.97
6216;BME280;3141;49.234;9.326;2023-02-13T04:02:24;101731.25;;;5.27;83.48
6216;BME280;3141;49.234;9.326;2023-02-13T04:03:15;101730.94;;;5.33;82.88
6216;BME280;3141;49.234;9.326;2023-02-13T04:04:05;101723.75;;;5.38;82.73
6216;BME280;3141;49.234;9.326;2023-02-13T04:04:54;101730.81;;;5.36;82.52
6216;BME280;3141;49.234;9.326;2023-02-13T04:05:46;101733.56;;;5.33;82.65
6216;BME280;3141;49.234;9.326;2023-02-13T04:06:33;101730.25;;;5.30;82.95
6216;BME280;3141;49.234;9.326;2023-02-13T04:07:18;101731.59;;;5.20;83.24
6216;BME280;3141;49.234;9.326;2023-02-13T04:08:12;101733.44;;;5.18;84.09
6216;BME280;3141;49.234;9.326;2023-02-13T04:08:54;101730.97;;;5.15;84.19
6216;BME280;3141;49.234;9.326;2023-02-13T04:09:39;101731.75;;;5.17;84.46
6216;BME280;3141;49.234;9.326;2023-02-13T04:10:25;101727.84;;;5.25;84.26
6216;BME280;3141;49.234;9.326;2023-02-13T04:12:51;101728.06;;;5.39;83.44
6216;BME280;3141;49.234;9.326;2023-02-13T04:13:42;101732.00;;;5.48;83.08
6216;BME280;3141;49.234;9.326;2023-02-13T04:14:37;101735.25;;;5.53;82.53
6216;BME280;3141;49.234;9.326;2023-02-13T04:15:28;101737.72;;;5.56;82.28
6216;BME280;3141;49.234;9.326;2023-02-13T04:16:18;101728.16;;;5.55;82.18
6216;BME280;3141;49.234;9.326;2023-02-13T04:17:12;101735.25;;;5.53;82.24
6216;BME280;3141;49.234;9.326;2023-02-13T04:18:16;101731.06;;;5.49;82.47
6216;BME280;3141;49.234;9.326;2023-02-13T04:19:00;101732.78;;;5.50;82.73
6216;BME280;3141;49.234;9.326;2023-02-13T04:19:43;101727.00;;;5.43;82.93
6216;BME280;3141;49.234;9.326;2023-02-13T04:20:26;101727.91;;;5.42;83.14
6216;BME280;3141;49.234;9.326;2023-02-13T04:21:09;101733.84;;;5.46;82.92
6216;BME280;3141;49.234;9.326;2023-02-13T04:21:56;101738.03;;;5.50;82.87
6216;BME280;3141;49.234;9.326;2023-02-13T04:22:45;101739.00;;;5.47;82.72
6216;BME280;3141;49.234;9.326;2023-02-13T04:23:27;101735.50;;;5.48;83.10
6216;BME280;3141;49.234;9.326;2023-02-13T04:24:10;101736.38;;;5.47;83.16
6216;BME280;3141;49.234;9.326;2023-02-13T04:24:53;101733.66;;;5.50;82.91
6216;BME280;3141;49.234;9.326;2023-02-13T04:25:37;101742.00;;;5.58;82.76
6216;BME280;3141;49.234;9.326;2023-02-13T04:26:22;101737.59;;;5.59;82.65
6216;BME280;3141;49.234;9.326;2023-02-13T04:27:04;101734.19;;;5.57;83.08
6216;BME280;3141;49.234;9.326;2023-02-13T04:27:47;101738.75;;;5.53;82.54
6216;BME280;3141;49.234;9.326;2023-02-13T04:28:29;101735.09;;;5.56;83.05
6216;BME280;3141;49.234;9.326;2023-02-13T04:29:11;101737.66;;;5.57;82.68
6216;BME280;3141;49.234;9.326;2023-02-13T04:29:54;101739.28;;;5.60;82.55
6216;BME280;3141;49.234;9.326;2023-02-13T04:30:37;101738.56;;;5.56;82.73
6216;BME280;3141;49.234;9.326;2023-02-13T04:31:19;101735.72;;;5.61;82.69
6216;BME280;3141;49.234;9.326;2023-02-13T04:32:01;101744.66;;;5.40;83.34
6216;BME280;3141;49.234;9.326;2023-02-13T04:32:44;101741.88;;;5.43;83.66
6216;BME280;3141;49.234;9.326;2023-02-13T04:33:26;101736.91;;;5.37;84.01
6216;BME280;3141;49.234;9.326;2023-02-13T04:34:08;101735.59;;;5.45;83.78
6216;BME280;3141;49.234;9.326;2023-02-13T04:34:51;101733.84;;;5.46;83.95
6216;BME280;3141;49.234;9.326;2023-02-13T04:35:33;101738.81;;;5.52;83.94
6216;BME280;3141;49.234;9.326;2023-02-13T04:36:16;101736.13;;;5.53;83.89
6216;BME280;3141;49.234;9.326;2023-02-13T04:36:58;101743.72;;;5.41;83.78
6216;BME280;3141;49.234;9.326;2023-02-13T04:37:41;101734.97;;;5.40;83.70
6216;BME280;3141;49.234;9.326;2023-02-13T04:38:23;101734.16;;;5.40;84.01
6216;BME280;3141;49.234;9.326;2023-02-13T04:39:05;101738.53;;;5.39;84.44
6216;BME280;3141;49.234;9.326;2023-02-13T04:39:48;101736.63;;;5.43;84.46
6216;BME280;3141;49.234;9.326;2023-02-13T04:40:30;101738.38;;;5.42;84.65
6216;BME280;3141;49.234;9.326;2023-02-13T04:41:12;101733.13;;;5.42;84.19
6216;BME280;3141;49.234;9.326;2023-02-13T04:41:54;101734.00;;;5.43;83.69
6216;BME280;3141;49.234;9.326;2023-02-13T04:42:37;101735.75;;;5.42;83.78
6216;BME280;3141;49.234;9.326;2023-02-13T04:43:19;101731.66;;;5.37;84.02
6216;BME280;3141;49.234;9.326;2023-02-13T04:44:02;101738.53;;;5.39;84.62
6216;BME280;3141;49.234;9.326;2023-02-13T04:44:45;101732.44;;;5.39;84.54
6216;BME280;3141;49.234;9.326;2023-02-13T04:45:27;101730.91;;;5.35;84.78
6216;BME280;3141;49.234;9.326;2023-02-13T04:46:09;101731.81;;;5.34;84.69
6216;BME280;3141;49.234;9.326;2023-02-13T04:46:52;101733.94;;;5.26;85.13
6216;BME280;3141;49.234;9.326;2023-02-13T04:47:34;101727.34;;;5.36;85.20
6216;BME280;3141;49.234;9.326;2023-02-13T04:48:16;101730.91;;;5.35;84.96
6216;BME280;3141;49.234;9.326;2023-02-13T04:48:59;101731.66;;;5.37;85.04
6216;BME280;3141;49.234;9.326;2023-02-13T04:49:41;101731.66;;;5.37;84.92
6216;BME280;3141;49.234;9.326;2023-02-13T04:50:24;101727.69;;;5.28;84.81
6216;BME280;3141;49.234;9.326;2023-02-13T04:51:06;101734.00;;;5.43;84.67